sensor_id;sensor_type;location;lat;lon;timestamp;P1;durP1;ratioP1;P2;durP2;ratioP2
27794;SDS011;15176;50.844;4.412;2023-03-05T00:01:16;6.85;;;2.13;;
27794;SDS011;15176;50.844;4.412;2023-03-05T00:03:54;5.43;;;1.75;;
27794;SDS011;15176;50.844;4.412;2023-03-05T00:06:22;7.35;;;2.00;;
27794;SDS011;15176;50.844;4.412;2023-03-05T00:08:49;7.53;;;1.63;;
27794;SDS011;15176;50.844;4.412;2023-03-05T00:11:17;6.30;;;1.77;;
27794;SDS011;15176;50.844;4.412;2023-03-05T00:13:43;6.00;;;2.08;;
27794;SDS011;15176;50.844;4.412;2023-03-05T00:16:11;5.50;;;2.20;;
27794;SDS011;15176;50.844;4.412;2023-03-05T00:18:38;9.75;;;2.40;;
27794;SDS011;15176;50.844;4.412;2023-03-05T00:21:12;9.65;;;2.75;;
27794;SDS011;15176;50.844;4.412;2023-03-05T00:23:46;5.60;;;2.55;;
27794;SDS011;15176;50.844;4.412;2023-03-05T00:26:11;13.10;;;2.63;;
27794;SDS011;15176;50.844;4.412;2023-03-05T00:28:37;8.35;;;2.63;;
27794;SDS011;15176;50.844;4.412;2023-03-05T00:31:03;7.72;;;2.50;;
27794;SDS011;15176;50.844;4.412;2023-03-05T00:33:29;11.18;;;2.50;;
27794;SDS011;15176;50.844;4.412;2023-03-05T00:35:55;5.65;;;1.90;;
27794;SDS011;15176;50.844;4.412;2023-03-05T00:38:22;9.02;;;2.60;;
27794;SDS011;15176;50.844;4.412;2023-03-05T00:40:48;10.02;;;2.45;;
27794;SDS011;15176;50.844;4.412;2023-03-05T00:43:15;6.90;;;2.47;;
27794;SDS011;15176;50.844;4.412;2023-03-05T00:45:40;8.90;;;2.80;;
27794;SDS011;15176;50.844;4.412;2023-03-05T00:48:06;8.55;;;2.92;;
27794;SDS011;15176;50.844;4.412;2023-03-05T00:50:32;8.45;;;3.08;;
27794;SDS011;15176;50.844;4.412;2023-03-05T00:52:57;7.18;;;2.88;;
27794;SDS011;15176;50.844;4.412;2023-03-05T00:55:23;9.07;;;3.33;;
27794;SDS011;15176;50.844;4.412;2023-03-05T00:57:49;8.73;;;3.30;;
27794;SDS011;15176;50.844;4.412;2023-03-05T01:00:15;8.85;;;3.05;;
27794;SDS011;15176;50.844;4.412;2023-03-05T01:02:41;10.80;;;3.35;;
27794;SDS011;15176;50.844;4.412;2023-03-05T01:05:09;9.93;;;3.20;;
27794;SDS011;15176;50.844;4.412;2023-03-05T01:07:36;9.13;;;3.20;;
27794;SDS011;15176;50.844;4.412;2023-03-05T01:10:02;7.85;;;3.13;;
27794;SDS011;15176;50.844;4.412;2023-03-05T01:12:28;8.18;;;3.50;;
27794;SDS011;15176;50.844;4.412;2023-03-05T01:14:54;7.80;;;3.72;;
27794;SDS011;15176;50.844;4.412;2023-03-05T01:17:19;10.40;;;3.40;;
27794;SDS011;15176;50.844;4.412;2023-03-05T01:19:45;10.18;;;3.42;;
27794;SDS011;15176;50.844;4.412;2023-03-05T01:22:11;10.30;;;3.30;;
27794;SDS011;15176;50.844;4.412;2023-03-05T01:24:37;11.63;;;3.40;;
27794;SDS011;15176;50.844;4.412;2023-03-05T01:27:02;9.60;;;4.00;;
27794;SDS011;15176;50.844;4.412;2023-03-05T01:29:28;10.23;;;3.60;;
27794;SDS011;15176;50.844;4.412;2023-03-05T01:31:54;8.32;;;3.33;;
27794;SDS011;15176;50.844;4.412;2023-03-05T01:34:20;11.80;;;3.58;;
27794;SDS011;15176;50.844;4.412;2023-03-05T01:36:45;8.68;;;3.60;;
27794;SDS011;15176;50.844;4.412;2023-03-05T01:39:14;12.00;;;3.78;;
27794;SDS011;15176;50.844;4.412;2023-03-05T01:41:39;10.10;;;3.92;;
27794;SDS011;15176;50.844;4.412;2023-03-05T01:44:05;10.63;;;4.00;;
27794;SDS011;15176;50.844;4.412;2023-03-05T01:51:37;15.98;;;4.18;;
27794;SDS011;15176;50.844;4.412;2023-03-05T01:54:12;10.32;;;4.18;;
27794;SDS011;15176;50.844;4.412;2023-03-05T01:56:40;10.13;;;4.20;;
27794;SDS011;15176;50.844;4.412;2023-03-05T01:59:07;8.90;;;3.97;;
27794;SDS011;15176;50.844;4.412;2023-03-05T02:01:39;10.95;;;4.40;;
27794;SDS011;15176;50.844;4.412;2023-03-05T02:04:08;12.63;;;4.85;;
27794;SDS011;15176;50.844;4.412;2023-03-05T02:06:36;15.18;;;5.20;;
27794;SDS011;15176;50.844;4.412;2023-03-05T02:09:04;10.68;;;4.90;;
27794;SDS011;15176;50.844;4.412;2023-03-05T02:11:30;11.63;;;5.18;;
27794;SDS011;15176;50.844;4.412;2023-03-05T02:13:57;13.30;;;4.60;;
27794;SDS011;15176;50.844;4.412;2023-03-05T02:16:23;10.88;;;4.70;;
27794;SDS011;15176;50.844;4.412;2023-03-05T02:18:48;13.95;;;5.13;;
27794;SDS011;15176;50.844;4.412;2023-03-05T02:21:14;13.75;;;5.28;;
27794;SDS011;15176;50.844;4.412;2023-03-05T02:23:52;15.52;;;4.72;;
27794;SDS011;15176;50.844;4.412;2023-03-05T02:26:18;13.80;;;4.82;;
27794;SDS011;15176;50.844;4.412;2023-03-05T02:28:45;11.20;;;3.92;;
27794;SDS011;15176;50.844;4.412;2023-03-05T02:31:18;9.18;;;4.10;;
27794;SDS011;15176;50.844;4.412;2023-03-05T02:33:45;10.82;;;4.18;;
27794;SDS011;15176;50.844;4.412;2023-03-05T02:36:12;10.57;;;3.80;;
27794;SDS011;15176;50.844;4.412;2023-03-05T02:38:38;7.93;;;3.60;;
27794;SDS011;15176;50.844;4.412;2023-03-05T02:41:05;13.18;;;3.60;;
27794;SDS011;15176;50.844;4.412;2023-03-05T02:43:30;9.32;;;4.15;;
27794;SDS011;15176;50.844;4.412;2023-03-05T02:45:58;7.97;;;3.85;;
27794;SDS011;15176;50.844;4.412;2023-03-05T02:48:23;12.68;;;4.07;;
27794;SDS011;15176;50.844;4.412;2023-03-05T02:50:49;10.63;;;3.45;;
27794;SDS011;15176;50.844;4.412;2023-03-05T02:53:15;9.50;;;3.50;;
27794;SDS011;15176;50.844;4.412;2023-03-05T02:55:41;11.55;;;3.70;;
27794;SDS011;15176;50.844;4.412;2023-03-05T02:58:06;7.88;;;3.75;;
27794;SDS011;15176;50.844;4.412;2023-03-05T03:00:32;8.50;;;3.60;;
27794;SDS011;15176;50.844;4.412;2023-03-05T03:02:58;11.93;;;3.90;;
27794;SDS011;15176;50.844;4.412;2023-03-05T03:05:23;10.43;;;3.60;;
27794;SDS011;15176;50.844;4.412;2023-03-05T03:07:49;8.95;;;3.58;;
27794;SDS011;15176;50.844;4.412;2023-03-05T03:10:16;13.98;;;3.72;;
27794;SDS011;15176;50.844;4.412;2023-03-05T03:12:43;10.65;;;3.88;;
27794;SDS011;15176;50.844;4.412;2023-03-05T03:15:10;10.77;;;3.60;;
27794;SDS011;15176;50.844;4.412;2023-03-05T03:17:37;9.15;;;3.42;;
27794;SDS011;15176;50.844;4.412;2023-03-05T03:20:04;12.05;;;3.97;;
27794;SDS011;15176;50.844;4.412;2023-03-05T03:22:34;7.97;;;3.53;;
27794;SDS011;15176;50.844;4.412;2023-03-05T03:25:00;8.93;;;3.60;;
27794;SDS011;15176;50.844;4.412;2023-03-05T03:27:26;12.82;;;3.92;;
27794;SDS011;15176;50.844;4.412;2023-03-05T03:29:52;9.85;;;4.03;;
27794;SDS011;15176;50.844;4.412;2023-03-05T03:32:18;12.15;;;3.97;;
27794;SDS011;15176;50.844;4.412;2023-03-05T03:34:44;8.48;;;3.10;;
27794;SDS011;15176;50.844;4.412;2023-03-05T03:37:10;6.80;;;2.13;;
27794;SDS011;15176;50.844;4.412;2023-03-05T03:39:35;12.63;;;3.28;;
27794;SDS011;15176;50.844;4.412;2023-03-05T03:42:01;8.73;;;2.83;;
27794;SDS011;15176;50.844;4.412;2023-03-05T03:44:27;9.52;;;2.88;;
27794;SDS011;15176;50.844;4.412;2023-03-05T03:46:52;7.25;;;2.60;;
27794;SDS011;15176;50.844;4.412;2023-03-05T03:49:22;5.72;;;2.17;;
27794;SDS011;15176;50.844;4.412;2023-03-05T03:51:50;9.05;;;3.00;;
27794;SDS011;15176;50.844;4.412;2023-03-05T03:54:18;7.22;;;3.22;;
27794;SDS011;15176;50.844;4.412;2023-03-05T03:56:44;8.38;;;3.08;;
27794;SDS011;15176;50.844;4.412;2023-03-05T03:59:10;11.52;;;3.45;;
27794;SDS011;15176;50.844;4.412;2023-03-05T04:01:37;8.55;;;3.22;;
27794;SDS011;15176;50.844;4.412;2023-03-05T04:04:03;9.57;;;3.22;;
27794;SDS011;15176;50.844;4.412;2023-03-05T04:06:30;8.45;;;3.00;;
27794;SDS011;15176;50.844;4.412;2023-03-05T04:08:57;7.70;;;2.90;;
27794;SDS011;15176;50.844;4.412;2023-03-05T04:11:23;8.43;;;2.92;;
27794;SDS011;15176;50.844;4.412;2023-03-05T04:13:49;9.48;;;2.97;;
27794;SDS011;15176;50.844;4.412;2023-03-05T04:16:15;11.85;;;3.40;;
27794;SDS011;15176;50.844;4.412;2023-03-05T04:18:41;11.48;;;3.47;;
27794;SDS011;15176;50.844;4.412;2023-03-05T04:21:07;12.10;;;3.40;;
27794;SDS011;15176;50.844;4.412;2023-03-05T04:23:33;9.00;;;3.05;;
27794;SDS011;15176;50.844;4.412;2023-03-05T04:25:59;10.52;;;3.42;;
27794;SDS011;15176;50.844;4.412;2023-03-05T04:28:25;7.38;;;3.30;;
27794;SDS011;15176;50.844;4.412;2023-03-05T04:30:52;11.43;;;3.60;;
27794;SDS011;15176;50.844;4.412;2023-03-05T04:33:18;9.77;;;3.38;;
27794;SDS011;15176;50.844;4.412;2023-03-05T04:35:44;8.68;;;3.10;;
27794;SDS011;15176;50.844;4.412;2023-03-05T04:38:09;10.38;;;3.33;;
27794;SDS011;15176;50.844;4.412;2023-03-05T04:40:35;14.15;;;3.80;;
27794;SDS011;15176;50.844;4.412;2023-03-05T04:43:02;7.72;;;3.70;;
27794;SDS011;15176;50.844;4.412;2023-03-05T04:45:28;13.30;;;3.53;;
27794;SDS011;15176;50.844;4.412;2023-03-05T04:47:54;13.05;;;4.10;;
27794;SDS011;15176;50.844;4.412;2023-03-05T04:50:20;9.85;;;4.13;;
27794;SDS011;15176;50.844;4.412;2023-03-05T04:52:45;13.98;;;3.55;;
27794;SDS011;15176;50.844;4.412;2023-03-05T04:55:12;10.45;;;4.28;;
27794;SDS011;15176;50.844;4.412;2023-03-05T04:57:39;10.95;;;4.32;;
27794;SDS011;15176;50.844;4.412;2023-03-05T05:00:06;9.48;;;4.10;;
27794;SDS011;15176;50.844;4.412;2023-03-05T05:02:38;15.25;;;4.20;;
27794;SDS011;15176;50.844;4.412;2023-03-05T05:05:08;13.45;;;4.38;;
27794;SDS011;15176;50.844;4.412;2023-03-05T05:07:36;9.43;;;4.32;;
27794;SDS011;15176;50.844;4.412;2023-03-05T05:10:02;12.55;;;5.18;;
27794;SDS011;15176;50.844;4.412;2023-03-05T05:12:29;15.38;;;5.13;;
27794;SDS011;15176;50.844;4.412;2023-03-05T05:14:58;11.65;;;4.72;;
27794;SDS011;15176;50.844;4.412;2023-03-05T05:17:24;13.77;;;5.30;;
27794;SDS011;15176;50.844;4.412;2023-03-05T05:19:49;12.52;;;5.45;;
27794;SDS011;15176;50.844;4.412;2023-03-05T05:22:15;13.07;;;5.57;;
27794;SDS011;15176;50.844;4.412;2023-03-05T05:24:41;14.43;;;6.03;;
27794;SDS011;15176;50.844;4.412;2023-03-05T05:27:07;12.93;;;5.90;;
27794;SDS011;15176;50.844;4.412;2023-03-05T05:29:33;15.75;;;5.88;;
27794;SDS011;15176;50.844;4.412;2023-03-05T05:31:58;13.65;;;6.10;;
27794;SDS011;15176;50.844;4.412;2023-03-05T05:34:24;11.60;;;5.97;;
27794;SDS011;15176;50.844;4.412;2023-03-05T05:36:50;10.57;;;5.18;;
27794;SDS011;15176;50.844;4.412;2023-03-05T05:39:16;16.05;;;5.47;;
27794;SDS011;15176;50.844;4.412;2023-03-05T05:41:42;11.40;;;5.22;;
27794;SDS011;15176;50.844;4.412;2023-03-05T05:44:07;19.05;;;6.03;;
27794;SDS011;15176;50.844;4.412;2023-03-05T05:46:34;11.52;;;5.57;;
27794;SDS011;15176;50.844;4.412;2023-03-05T05:49:00;13.82;;;5.60;;
27794;SDS011;15176;50.844;4.412;2023-03-05T05:51:26;13.32;;;5.57;;
27794;SDS011;15176;50.844;4.412;2023-03-05T05:53:52;10.65;;;4.78;;
27794;SDS011;15176;50.844;4.412;2023-03-05T05:56:18;11.43;;;5.25;;
27794;SDS011;15176;50.844;4.412;2023-03-05T05:58:45;15.55;;;6.07;;
27794;SDS011;15176;50.844;4.412;2023-03-05T06:01:16;11.95;;;5.93;;
27794;SDS011;15176;50.844;4.412;2023-03-05T06:03:45;13.13;;;5.82;;
27794;SDS011;15176;50.844;4.412;2023-03-05T06:06:12;12.48;;;6.10;;
27794;SDS011;15176;50.844;4.412;2023-03-05T06:08:39;13.18;;;6.38;;
27794;SDS011;15176;50.844;4.412;2023-03-05T06:11:05;12.88;;;6.45;;
27794;SDS011;15176;50.844;4.412;2023-03-05T06:13:31;13.63;;;6.13;;
27794;SDS011;15176;50.844;4.412;2023-03-05T06:15:58;15.95;;;6.75;;
27794;SDS011;15176;50.844;4.412;2023-03-05T06:18:25;13.63;;;6.43;;
27794;SDS011;15176;50.844;4.412;2023-03-05T06:20:55;12.40;;;6.20;;
27794;SDS011;15176;50.844;4.412;2023-03-05T06:23:22;14.63;;;6.80;;
27794;SDS011;15176;50.844;4.412;2023-03-05T06:25:48;14.68;;;6.97;;
27794;SDS011;15176;50.844;4.412;2023-03-05T06:28:17;15.98;;;7.28;;
27794;SDS011;15176;50.844;4.412;2023-03-05T06:30:43;15.32;;;6.95;;
27794;SDS011;15176;50.844;4.412;2023-03-05T06:33:09;17.25;;;7.13;;
27794;SDS011;15176;50.844;4.412;2023-03-05T06:35:38;15.50;;;7.45;;
27794;SDS011;15176;50.844;4.412;2023-03-05T06:38:05;14.50;;;7.18;;
27794;SDS011;15176;50.844;4.412;2023-03-05T06:40:32;16.15;;;7.43;;
27794;SDS011;15176;50.844;4.412;2023-03-05T06:42:58;13.60;;;7.72;;
27794;SDS011;15176;50.844;4.412;2023-03-05T06:45:24;18.00;;;8.35;;
27794;SDS011;15176;50.844;4.412;2023-03-05T06:47:51;18.80;;;8.20;;
27794;SDS011;15176;50.844;4.412;2023-03-05T06:50:16;21.13;;;8.10;;
27794;SDS011;15176;50.844;4.412;2023-03-05T06:52:42;17.48;;;8.38;;
27794;SDS011;15176;50.844;4.412;2023-03-05T06:55:08;15.55;;;7.32;;
27794;SDS011;15176;50.844;4.412;2023-03-05T06:57:35;17.40;;;8.23;;
27794;SDS011;15176;50.844;4.412;2023-03-05T07:00:04;13.38;;;7.57;;
27794;SDS011;15176;50.844;4.412;2023-03-05T07:02:34;15.45;;;7.60;;
27794;SDS011;15176;50.844;4.412;2023-03-05T07:05:01;18.45;;;7.75;;
27794;SDS011;15176;50.844;4.412;2023-03-05T07:07:28;11.85;;;7.13;;
27794;SDS011;15176;50.844;4.412;2023-03-05T07:09:54;15.77;;;7.28;;
27794;SDS011;15176;50.844;4.412;2023-03-05T07:12:20;15.35;;;6.85;;
27794;SDS011;15176;50.844;4.412;2023-03-05T07:14:45;15.07;;;7.05;;
27794;SDS011;15176;50.844;4.412;2023-03-05T07:17:11;15.18;;;7.43;;
27794;SDS011;15176;50.844;4.412;2023-03-05T07:19:39;16.88;;;7.50;;
27794;SDS011;15176;50.844;4.412;2023-03-05T07:22:06;13.40;;;7.10;;
27794;SDS011;15176;50.844;4.412;2023-03-05T07:24:32;13.98;;;7.10;;
27794;SDS011;15176;50.844;4.412;2023-03-05T07:26:58;16.55;;;7.03;;
27794;SDS011;15176;50.844;4.412;2023-03-05T07:29:24;14.48;;;7.32;;
27794;SDS011;15176;50.844;4.412;2023-03-05T07:31:52;10.98;;;5.40;;
27794;SDS011;15176;50.844;4.412;2023-03-05T07:34:19;11.45;;;5.10;;
27794;SDS011;15176;50.844;4.412;2023-03-05T07:36:48;12.45;;;5.47;;
27794;SDS011;15176;50.844;4.412;2023-03-05T07:39:14;13.73;;;6.50;;
27794;SDS011;15176;50.844;4.412;2023-03-05T07:41:42;13.85;;;5.93;;
27794;SDS011;15176;50.844;4.412;2023-03-05T07:44:09;11.45;;;5.88;;
27794;SDS011;15176;50.844;4.412;2023-03-05T07:46:35;11.93;;;5.82;;
27794;SDS011;15176;50.844;4.412;2023-03-05T07:49:00;14.80;;;6.10;;
27794;SDS011;15176;50.844;4.412;2023-03-05T07:51:26;12.73;;;5.72;;
27794;SDS011;15176;50.844;4.412;2023-03-05T07:53:53;13.02;;;5.65;;
27794;SDS011;15176;50.844;4.412;2023-03-05T07:56:24;14.13;;;7.32;;
27794;SDS011;15176;50.844;4.412;2023-03-05T07:58:53;14.27;;;6.80;;
27794;SDS011;15176;50.844;4.412;2023-03-05T08:01:19;11.00;;;5.63;;
27794;SDS011;15176;50.844;4.412;2023-03-05T08:03:45;12.73;;;6.43;;
27794;SDS011;15176;50.844;4.412;2023-03-05T08:06:11;9.98;;;5.85;;
27794;SDS011;15176;50.844;4.412;2023-03-05T08:08:37;12.93;;;6.03;;
27794;SDS011;15176;50.844;4.412;2023-03-05T08:11:06;11.40;;;6.28;;
27794;SDS011;15176;50.844;4.412;2023-03-05T08:13:35;12.38;;;6.15;;
27794;SDS011;15176;50.844;4.412;2023-03-05T08:16:09;11.45;;;5.95;;
27794;SDS011;15176;50.844;4.412;2023-03-05T08:18:37;11.70;;;5.78;;
27794;SDS011;15176;50.844;4.412;2023-03-05T08:21:03;10.65;;;5.18;;
27794;SDS011;15176;50.844;4.412;2023-03-05T08:23:30;9.40;;;5.35;;
27794;SDS011;15176;50.844;4.412;2023-03-05T08:25:56;9.85;;;5.28;;
27794;SDS011;15176;50.844;4.412;2023-03-05T08:28:21;10.75;;;5.40;;
27794;SDS011;15176;50.844;4.412;2023-03-05T08:30:48;12.18;;;6.18;;
27794;SDS011;15176;50.844;4.412;2023-03-05T08:33:14;9.30;;;5.28;;
27794;SDS011;15176;50.844;4.412;2023-03-05T08:35:42;10.55;;;5.35;;
27794;SDS011;15176;50.844;4.412;2023-03-05T08:38:08;10.73;;;4.82;;
27794;SDS011;15176;50.844;4.412;2023-03-05T08:40:34;9.63;;;5.25;;
27794;SDS011;15176;50.844;4.412;2023-03-05T08:42:59;10.02;;;5.28;;
27794;SDS011;15176;50.844;4.412;2023-03-05T08:45:25;10.88;;;5.72;;
27794;SDS011;15176;50.844;4.412;2023-03-05T08:47:55;10.57;;;5.63;;
27794;SDS011;15176;50.844;4.412;2023-03-05T08:50:22;10.75;;;6.07;;
27794;SDS011;15176;50.844;4.412;2023-03-05T08:52:51;9.50;;;5.72;;
27794;SDS011;15176;50.844;4.412;2023-03-05T08:55:17;11.93;;;5.90;;
27794;SDS011;15176;50.844;4.412;2023-03-05T08:57:43;7.45;;;4.18;;
27794;SDS011;15176;50.844;4.412;2023-03-05T09:00:09;9.90;;;5.30;;
27794;SDS011;15176;50.844;4.412;2023-03-05T09:02:36;8.27;;;4.80;;
27794;SDS011;15176;50.844;4.412;2023-03-05T09:05:03;7.88;;;4.38;;
27794;SDS011;15176;50.844;4.412;2023-03-05T09:07:28;8.63;;;5.05;;
27794;SDS011;15176;50.844;4.412;2023-03-05T09:09:54;10.57;;;4.75;;
27794;SDS011;15176;50.844;4.412;2023-03-05T09:12:20;6.85;;;3.95;;
27794;SDS011;15176;50.844;4.412;2023-03-05T09:14:45;8.25;;;3.72;;
27794;SDS011;15176;50.844;4.412;2023-03-05T09:17:11;9.40;;;3.70;;
27794;SDS011;15176;50.844;4.412;2023-03-05T09:19:37;10.20;;;4.15;;
27794;SDS011;15176;50.844;4.412;2023-03-05T09:22:02;7.28;;;3.67;;
27794;SDS011;15176;50.844;4.412;2023-03-05T09:24:28;9.15;;;4.07;;
27794;SDS011;15176;50.844;4.412;2023-03-05T09:26:58;8.23;;;4.55;;
27794;SDS011;15176;50.844;4.412;2023-03-05T09:29:24;9.15;;;5.10;;
27794;SDS011;15176;50.844;4.412;2023-03-05T09:31:51;11.80;;;5.88;;
27794;SDS011;15176;50.844;4.412;2023-03-05T09:34:17;11.10;;;6.13;;
27794;SDS011;15176;50.844;4.412;2023-03-05T09:36:43;11.85;;;7.00;;
27794;SDS011;15176;50.844;4.412;2023-03-05T09:39:08;12.57;;;7.28;;
27794;SDS011;15176;50.844;4.412;2023-03-05T09:47:22;12.05;;;5.60;;
27794;SDS011;15176;50.844;4.412;2023-03-05T09:55:37;9.23;;;5.38;;
27794;SDS011;15176;50.844;4.412;2023-03-05T09:58:10;8.13;;;5.20;;
27794;SDS011;15176;50.844;4.412;2023-03-05T10:09:53;6.97;;;4.10;;
27794;SDS011;15176;50.844;4.412;2023-03-05T10:15:13;6.22;;;3.05;;
27794;SDS011;15176;50.844;4.412;2023-03-05T10:20:31;6.15;;;2.72;;
27794;SDS011;15176;50.844;4.412;2023-03-05T10:34:35;9.85;;;4.40;;
27794;SDS011;15176;50.844;4.412;2023-03-05T10:50:17;7.40;;;3.28;;
27794;SDS011;15176;50.844;4.412;2023-03-05T10:55:25;5.53;;;2.45;;
27794;SDS011;15176;50.844;4.412;2023-03-05T10:57:51;6.40;;;2.63;;
27794;SDS011;15176;50.844;4.412;2023-03-05T11:00:21;7.05;;;2.88;;
27794;SDS011;15176;50.844;4.412;2023-03-05T11:02:53;10.32;;;3.15;;
27794;SDS011;15176;50.844;4.412;2023-03-05T11:16:28;8.52;;;4.07;;
27794;SDS011;15176;50.844;4.412;2023-03-05T11:19:16;6.90;;;3.65;;
27794;SDS011;15176;50.844;4.412;2023-03-05T11:21:46;9.05;;;4.10;;
27794;SDS011;15176;50.844;4.412;2023-03-05T11:24:29;12.05;;;4.93;;
27794;SDS011;15176;50.844;4.412;2023-03-05T11:26:56;8.32;;;3.90;;
27794;SDS011;15176;50.844;4.412;2023-03-05T11:29:29;7.90;;;4.43;;
27794;SDS011;15176;50.844;4.412;2023-03-05T11:32:13;7.20;;;3.50;;
27794;SDS011;15176;50.844;4.412;2023-03-05T11:35:00;9.15;;;3.15;;
27794;SDS011;15176;50.844;4.412;2023-03-05T11:40:13;6.25;;;2.50;;
27794;SDS011;15176;50.844;4.412;2023-03-05T11:42:47;5.28;;;2.33;;
27794;SDS011;15176;50.844;4.412;2023-03-05T11:45:19;6.97;;;2.30;;
27794;SDS011;15176;50.844;4.412;2023-03-05T11:47:53;7.77;;;2.60;;
27794;SDS011;15176;50.844;4.412;2023-03-05T11:50:38;11.38;;;2.63;;
27794;SDS011;15176;50.844;4.412;2023-03-05T11:53:11;3.35;;;1.45;;
27794;SDS011;15176;50.844;4.412;2023-03-05T11:55:45;5.03;;;1.98;;
27794;SDS011;15176;50.844;4.412;2023-03-05T12:00:56;6.55;;;2.17;;
27794;SDS011;15176;50.844;4.412;2023-03-05T12:03:25;4.72;;;1.67;;
27794;SDS011;15176;50.844;4.412;2023-03-05T12:05:56;8.45;;;2.60;;
27794;SDS011;15176;50.844;4.412;2023-03-05T12:08:31;10.43;;;4.53;;
27794;SDS011;15176;50.844;4.412;2023-03-05T12:11:00;7.28;;;3.15;;
27794;SDS011;15176;50.844;4.412;2023-03-05T12:13:39;5.10;;;2.67;;
27794;SDS011;15176;50.844;4.412;2023-03-05T12:16:31;8.93;;;3.60;;
27794;SDS011;15176;50.844;4.412;2023-03-05T12:21:59;8.98;;;3.70;;
27794;SDS011;15176;50.844;4.412;2023-03-05T12:31:52;10.20;;;4.97;;
27794;SDS011;15176;50.844;4.412;2023-03-05T12:37:03;10.90;;;5.43;;
27794;SDS011;15176;50.844;4.412;2023-03-05T12:39:41;11.65;;;6.20;;
27794;SDS011;15176;50.844;4.412;2023-03-05T12:47:40;14.05;;;6.72;;
27794;SDS011;15176;50.844;4.412;2023-03-05T12:55:29;10.27;;;6.30;;
27794;SDS011;15176;50.844;4.412;2023-03-05T12:58:19;10.48;;;6.65;;
27794;SDS011;15176;50.844;4.412;2023-03-05T13:01:00;12.13;;;7.15;;
27794;SDS011;15176;50.844;4.412;2023-03-05T13:03:28;9.38;;;4.90;;
27794;SDS011;15176;50.844;4.412;2023-03-05T13:06:29;11.88;;;5.88;;
27794;SDS011;15176;50.844;4.412;2023-03-05T13:11:51;11.70;;;5.93;;
27794;SDS011;15176;50.844;4.412;2023-03-05T13:14:27;9.30;;;5.93;;
27794;SDS011;15176;50.844;4.412;2023-03-05T13:16:54;7.75;;;4.00;;
27794;SDS011;15176;50.844;4.412;2023-03-05T13:19:20;15.65;;;4.63;;
27794;SDS011;15176;50.844;4.412;2023-03-05T13:21:55;5.78;;;2.97;;
27794;SDS011;15176;50.844;4.412;2023-03-05T13:24:26;9.32;;;2.60;;
27794;SDS011;15176;50.844;4.412;2023-03-05T13:26:53;8.43;;;1.73;;
27794;SDS011;15176;50.844;4.412;2023-03-05T13:29:20;4.43;;;1.85;;
27794;SDS011;15176;50.844;4.412;2023-03-05T13:31:49;4.22;;;1.90;;
27794;SDS011;15176;50.844;4.412;2023-03-05T13:34:27;5.53;;;1.83;;
27794;SDS011;15176;50.844;4.412;2023-03-05T13:36:58;9.48;;;1.92;;
27794;SDS011;15176;50.844;4.412;2023-03-05T13:39:27;6.07;;;1.70;;
27794;SDS011;15176;50.844;4.412;2023-03-05T13:41:58;7.43;;;1.90;;
27794;SDS011;15176;50.844;4.412;2023-03-05T13:44:27;7.38;;;2.20;;
27794;SDS011;15176;50.844;4.412;2023-03-05T13:47:04;4.30;;;1.80;;
27794;SDS011;15176;50.844;4.412;2023-03-05T13:49:39;5.70;;;1.50;;
27794;SDS011;15176;50.844;4.412;2023-03-05T13:52:05;3.38;;;1.63;;
27794;SDS011;15176;50.844;4.412;2023-03-05T13:54:31;4.13;;;1.70;;
27794;SDS011;15176;50.844;4.412;2023-03-05T13:56:58;7.18;;;1.88;;
27794;SDS011;15176;50.844;4.412;2023-03-05T13:59:27;3.33;;;1.27;;
27794;SDS011;15176;50.844;4.412;2023-03-05T14:01:59;5.53;;;1.08;;
27794;SDS011;15176;50.844;4.412;2023-03-05T14:04:29;3.22;;;1.20;;
27794;SDS011;15176;50.844;4.412;2023-03-05T14:07:28;3.42;;;1.25;;
27794;SDS011;15176;50.844;4.412;2023-03-05T14:10:02;2.15;;;0.70;;
27794;SDS011;15176;50.844;4.412;2023-03-05T14:12:49;2.85;;;1.30;;
27794;SDS011;15176;50.844;4.412;2023-03-05T14:15:19;3.30;;;1.40;;
27794;SDS011;15176;50.844;4.412;2023-03-05T14:17:45;6.47;;;1.80;;
27794;SDS011;15176;50.844;4.412;2023-03-05T14:20:27;4.38;;;1.52;;
27794;SDS011;15176;50.844;4.412;2023-03-05T14:22:57;3.63;;;1.50;;
27794;SDS011;15176;50.844;4.412;2023-03-05T14:25:34;2.95;;;1.40;;
27794;SDS011;15176;50.844;4.412;2023-03-05T14:28:06;4.45;;;1.38;;
27794;SDS011;15176;50.844;4.412;2023-03-05T14:30:44;3.08;;;1.10;;
27794;SDS011;15176;50.844;4.412;2023-03-05T14:33:14;5.88;;;2.03;;
27794;SDS011;15176;50.844;4.412;2023-03-05T14:35:56;7.35;;;2.00;;
27794;SDS011;15176;50.844;4.412;2023-03-05T14:38:25;3.60;;;1.50;;
27794;SDS011;15176;50.844;4.412;2023-03-05T14:40:53;4.30;;;1.80;;
27794;SDS011;15176;50.844;4.412;2023-03-05T14:43:19;5.00;;;1.10;;
27794;SDS011;15176;50.844;4.412;2023-03-05T14:45:45;4.57;;;1.38;;
27794;SDS011;15176;50.844;4.412;2023-03-05T14:48:12;4.20;;;1.40;;
27794;SDS011;15176;50.844;4.412;2023-03-05T14:50:48;9.63;;;1.52;;
27794;SDS011;15176;50.844;4.412;2023-03-05T14:53:22;2.28;;;1.00;;
27794;SDS011;15176;50.844;4.412;2023-03-05T14:55:53;4.65;;;1.30;;
27794;SDS011;15176;50.844;4.412;2023-03-05T14:58:21;3.95;;;1.17;;
27794;SDS011;15176;50.844;4.412;2023-03-05T15:00:50;5.60;;;1.23;;
27794;SDS011;15176;50.844;4.412;2023-03-05T15:03:16;4.15;;;1.17;;
27794;SDS011;15176;50.844;4.412;2023-03-05T15:05:45;4.50;;;1.35;;
27794;SDS011;15176;50.844;4.412;2023-03-05T15:08:17;6.78;;;1.42;;
27794;SDS011;15176;50.844;4.412;2023-03-05T15:10:51;3.05;;;1.35;;
27794;SDS011;15176;50.844;4.412;2023-03-05T15:13:17;9.13;;;1.75;;
27794;SDS011;15176;50.844;4.412;2023-03-05T15:15:44;6.80;;;2.30;;
27794;SDS011;15176;50.844;4.412;2023-03-05T15:18:13;8.90;;;2.58;;
27794;SDS011;15176;50.844;4.412;2023-03-05T15:20:41;3.13;;;1.25;;
27794;SDS011;15176;50.844;4.412;2023-03-05T15:23:07;5.35;;;1.40;;
27794;SDS011;15176;50.844;4.412;2023-03-05T15:25:34;5.72;;;1.73;;
27794;SDS011;15176;50.844;4.412;2023-03-05T15:27:59;4.40;;;1.65;;
27794;SDS011;15176;50.844;4.412;2023-03-05T15:30:27;10.63;;;2.63;;
27794;SDS011;15176;50.844;4.412;2023-03-05T15:32:54;3.42;;;1.52;;
27794;SDS011;15176;50.844;4.412;2023-03-05T15:35:22;7.25;;;1.85;;
27794;SDS011;15176;50.844;4.412;2023-03-05T15:37:48;5.38;;;1.70;;
27794;SDS011;15176;50.844;4.412;2023-03-05T15:40:16;9.38;;;3.95;;
27794;SDS011;15176;50.844;4.412;2023-03-05T15:42:43;5.95;;;2.13;;
27794;SDS011;15176;50.844;4.412;2023-03-05T15:45:09;6.50;;;2.20;;
27794;SDS011;15176;50.844;4.412;2023-03-05T15:47:35;9.43;;;2.55;;
27794;SDS011;15176;50.844;4.412;2023-03-05T15:50:00;5.28;;;1.60;;
27794;SDS011;15176;50.844;4.412;2023-03-05T15:52:27;7.13;;;1.98;;
27794;SDS011;15176;50.844;4.412;2023-03-05T15:54:52;6.68;;;2.60;;
27794;SDS011;15176;50.844;4.412;2023-03-05T15:57:18;10.30;;;2.60;;
27794;SDS011;15176;50.844;4.412;2023-03-05T15:59:48;6.28;;;2.58;;
27794;SDS011;15176;50.844;4.412;2023-03-05T16:02:14;7.35;;;2.67;;
27794;SDS011;15176;50.844;4.412;2023-03-05T16:04:40;6.90;;;3.03;;
27794;SDS011;15176;50.844;4.412;2023-03-05T16:07:05;6.93;;;2.60;;
27794;SDS011;15176;50.844;4.412;2023-03-05T16:09:36;7.05;;;2.88;;
27794;SDS011;15176;50.844;4.412;2023-03-05T16:12:08;6.53;;;2.83;;
27794;SDS011;15176;50.844;4.412;2023-03-05T16:14:36;5.25;;;2.25;;
27794;SDS011;15176;50.844;4.412;2023-03-05T16:17:04;9.00;;;3.15;;
27794;SDS011;15176;50.844;4.412;2023-03-05T16:19:30;6.85;;;2.70;;
27794;SDS011;15176;50.844;4.412;2023-03-05T16:21:58;6.25;;;2.40;;
27794;SDS011;15176;50.844;4.412;2023-03-05T16:24:24;6.80;;;2.67;;
27794;SDS011;15176;50.844;4.412;2023-03-05T16:26:50;6.47;;;2.58;;
27794;SDS011;15176;50.844;4.412;2023-03-05T16:29:17;8.88;;;2.90;;